Time;durP1;ratioP1;P1;durP2;ratioP2;P2;SDS_P1;SDS_P2;PMS_P1;PMS_P2;Temp;Humidity;BMP_temperature;BMP_pressure;BME280_temperature;BME280_humidity;BME280_pressure;Samples;Min_cycle;Max_cycle;Signal;HPM_P1;HPM_P2
2023/07/03 00:02:19;;;;;;;10.18;8.85;;;;;;;;;;5076382;28;20347;-65
2023/07/03 00:04:47;;;;;;;9.50;8.57;;;;;;;;;;5076763;28;20200;-66
2023/07/03 00:07:15;;;;;;;9.65;8.65;;;;;;;;;;5076853;28;20294;-66
2023/07/03 00:09:43;;;;;;;10.20;9.10;;;;;;;;;;5080252;28;20204;-65
2023/07/03 00:12:11;;;;;;;9.98;8.95;;;;;;;;;;5079976;28;20299;-65
2023/07/03 00:14:38;;;;;;;10.65;9.60;;;;;;;;;;5080244;28;20668;-66
2023/07/03 00:17:07;;;;;;;9.80;8.70;;;;;;;;;;5080099;28;20287;-66
2023/07/03 00:19:36;;;;;;;9.85;8.80;;;;;;;;;;5079928;28;20205;-66
2023/07/03 00:22:04;;;;;;;11.73;9.48;;;;;;;;;;5080156;28;20204;-66
2023/07/03 00:24:32;;;;;;;10.05;9.05;;;;;;;;;;5080012;28;20546;-65
2023/07/03 00:27:00;;;;;;;11.73;9.13;;;;;;;;;;5080122;28;20204;-65
2023/07/03 00:29:30;;;;;;;10.52;9.43;;;;;;;;;;5080018;28;20290;-65
2023/07/03 00:31:58;;;;;;;10.43;8.95;;;;;;;;;;5080117;28;20203;-66
2023/07/03 00:34:26;;;;;;;9.77;8.52;;;;;;;;;;5079666;28;20638;-66
2023/07/03 00:36:55;;;;;;;9.70;8.80;;;;;;;;;;5079970;28;20603;-65
2023/07/03 00:39:22;;;;;;;9.98;8.77;;;;;;;;;;5079429;28;20249;-65
2023/07/03 00:41:50;;;;;;;10.02;9.02;;;;;;;;;;5080149;28;20268;-65
2023/07/03 00:44:18;;;;;;;10.13;9.10;;;;;;;;;;5079426;28;20211;-65
2023/07/03 00:46:48;;;;;;;9.80;8.80;;;;;;;;;;5079439;28;20204;-65
2023/07/03 00:49:16;;;;;;;10.80;9.25;;;;;;;;;;5079807;28;20247;-65
2023/07/03 00:51:45;;;;;;;12.00;9.50;;;;;;;;;;5078981;28;20612;-65
2023/07/03 00:54:14;;;;;;;9.82;8.73;;;;;;;;;;5079387;28;20561;-65
2023/07/03 00:56:42;;;;;;;10.52;9.43;;;;;;;;;;5079576;28;20299;-65
2023/07/03 00:59:09;;;;;;;10.57;9.48;;;;;;;;;;5079185;28;20205;-65
2023/07/03 01:01:43;;;;;;;10.23;9.18;;;;;;;;;;5078583;28;20302;-65
2023/07/03 01:04:12;;;;;;;10.00;9.00;;;;;;;;;;5079370;28;20303;-66
2023/07/03 01:06:42;;;;;;;10.40;9.18;;;;;;;;;;5079363;28;20200;-66
2023/07/03 01:09:10;;;;;;;9.90;8.90;;;;;;;;;;5079090;28;20235;-65
2023/07/03 01:11:40;;;;;;;9.65;8.63;;;;;;;;;;5079274;28;20200;-65
2023/07/03 01:14:08;;;;;;;10.63;9.45;;;;;;;;;;5079142;28;20323;-65
2023/07/03 01:16:36;;;;;;;11.13;9.98;;;;;;;;;;5078970;28;20248;-65
2023/07/03 01:19:05;;;;;;;10.88;9.13;;;;;;;;;;5078088;28;20215;-65
2023/07/03 01:21:39;;;;;;;12.15;9.95;;;;;;;;;;5079333;28;20286;-65
2023/07/03 01:24:11;;;;;;;10.15;8.82;;;;;;;;;;5079071;28;20204;-65
2023/07/03 01:26:41;;;;;;;10.00;9.00;;;;;;;;;;5079342;28;20694;-65
2023/07/03 01:29:10;;;;;;;10.45;9.43;;;;;;;;;;5078477;28;20588;-66
2023/07/03 01:31:39;;;;;;;10.23;9.23;;;;;;;;;;5078748;28;20287;-65
2023/07/03 01:34:09;;;;;;;11.00;9.90;;;;;;;;;;5078529;28;20264;-65
2023/07/03 01:36:37;;;;;;;10.85;9.60;;;;;;;;;;5078472;28;20212;-65
2023/07/03 01:39:04;;;;;;;11.10;9.43;;;;;;;;;;5078122;28;20232;-65
2023/07/03 01:41:32;;;;;;;12.38;10.57;;;;;;;;;;5078062;28;20236;-65
2023/07/03 01:44:01;;;;;;;10.40;9.35;;;;;;;;;;5078394;28;20211;-65
2023/07/03 01:46:29;;;;;;;10.43;9.18;;;;;;;;;;5078392;28;20654;-65
2023/07/03 01:48:56;;;;;;;9.30;8.40;;;;;;;;;;5078082;28;20204;-65
2023/07/03 01:51:27;;;;;;;10.48;9.48;;;;;;;;;;5077883;28;20214;-65
2023/07/03 01:53:57;;;;;;;10.27;9.18;;;;;;;;;;5077743;28;20224;-65
2023/07/03 01:56:27;;;;;;;10.10;9.02;;;;;;;;;;5078294;28;20523;-66
2023/07/03 01:58:59;;;;;;;11.25;9.32;;;;;;;;;;5077458;28;20204;-65
2023/07/03 02:01:32;;;;;;;9.80;8.90;;;;;;;;;;5077885;28;20205;-65
2023/07/03 02:04:02;;;;;;;10.18;9.13;;;;;;;;;;5078143;28;20611;-65
2023/07/03 02:06:33;;;;;;;10.23;9.20;;;;;;;;;;5078246;28;20299;-65
2023/07/03 02:09:02;;;;;;;10.00;9.00;;;;;;;;;;5077931;28;20208;-65
2023/07/03 02:11:30;;;;;;;10.73;9.63;;;;;;;;;;5077875;28;20219;-66
2023/07/03 02:13:58;;;;;;;10.23;9.18;;;;;;;;;;5077918;28;20323;-65
2023/07/03 02:16:29;;;;;;;10.10;9.10;;;;;;;;;;5077501;28;20204;-66
2023/07/03 02:18:58;;;;;;;9.93;8.85;;;;;;;;;;5077697;28;20212;-65
2023/07/03 02:21:25;;;;;;;11.63;10.43;;;;;;;;;;5077652;28;20210;-65
2023/07/03 02:23:53;;;;;;;10.43;9.43;;;;;;;;;;5077786;28;20231;-65
2023/07/03 02:26:21;;;;;;;10.32;9.25;;;;;;;;;;5077566;28;20208;-65
2023/07/03 02:28:48;;;;;;;10.40;9.30;;;;;;;;;;5077801;28;20294;-65
2023/07/03 02:31:15;;;;;;;11.60;9.68;;;;;;;;;;5076859;28;20205;-65
2023/07/03 02:33:43;;;;;;;10.43;8.75;;;;;;;;;;5077494;28;20298;-65
2023/07/03 02:36:11;;;;;;;10.30;9.18;;;;;;;;;;5077232;28;20295;-65
2023/07/03 02:38:39;;;;;;;10.25;9.27;;;;;;;;;;5077554;28;20250;-65
2023/07/03 02:41:07;;;;;;;12.10;9.95;;;;;;;;;;5077373;28;20283;-65
2023/07/03 02:43:34;;;;;;;10.13;9.02;;;;;;;;;;5077667;28;20234;-65
2023/07/03 02:46:04;;;;;;;12.13;9.95;;;;;;;;;;5077608;28;20210;-65
2023/07/03 02:48:31;;;;;;;9.85;8.88;;;;;;;;;;5077297;28;20212;-65
2023/07/03 02:50:59;;;;;;;10.55;9.20;;;;;;;;;;5077293;28;20204;-65
2023/07/03 02:53:27;;;;;;;10.82;9.70;;;;;;;;;;5077484;28;20681;-65
2023/07/03 02:55:55;;;;;;;10.85;9.75;;;;;;;;;;5077048;28;20315;-65
2023/07/03 02:58:23;;;;;;;12.15;9.80;;;;;;;;;;5077759;28;20306;-65
2023/07/03 03:00:50;;;;;;;11.55;10.07;;;;;;;;;;5077090;28;20572;-65
2023/07/03 03:03:18;;;;;;;10.73;9.40;;;;;;;;;;5077210;28;20204;-65
2023/07/03 03:05:46;;;;;;;11.20;10.02;;;;;;;;;;5077092;28;20675;-66
2023/07/03 03:08:13;;;;;;;10.50;9.43;;;;;;;;;;5077164;28;20204;-65
2023/07/03 03:10:42;;;;;;;11.18;10.02;;;;;;;;;;5077328;28;20204;-65
2023/07/03 03:13:09;;;;;;;10.88;9.77;;;;;;;;;;5077200;28;20303;-65
2023/07/03 03:15:37;;;;;;;10.82;9.73;;;;;;;;;;5077117;28;20315;-65
2023/07/03 03:18:05;;;;;;;11.75;10.50;;;;;;;;;;5077356;28;20616;-65
2023/07/03 03:20:32;;;;;;;11.52;10.07;;;;;;;;;;5076738;28;20223;-65
2023/07/03 03:22:59;;;;;;;12.50;10.30;;;;;;;;;;5077242;28;20537;-65
2023/07/03 03:25:27;;;;;;;11.77;10.43;;;;;;;;;;5076990;28;20294;-65
2023/07/03 03:27:56;;;;;;;13.32;10.85;;;;;;;;;;5077044;28;20204;-65
2023/07/03 03:30:24;;;;;;;11.88;10.57;;;;;;;;;;5076438;28;20659;-65
2023/07/03 03:32:52;;;;;;;12.75;10.90;;;;;;;;;;5076807;28;20534;-65
2023/07/03 03:35:19;;;;;;;13.98;11.52;;;;;;;;;;5076549;28;20264;-65
2023/07/03 03:37:46;;;;;;;13.45;11.20;;;;;;;;;;5076602;28;20204;-65
2023/07/03 03:40:14;;;;;;;13.25;11.18;;;;;;;;;;5076572;28;20250;-65
2023/07/03 03:42:42;;;;;;;12.82;11.43;;;;;;;;;;5077352;28;20561;-65
2023/07/03 03:45:11;;;;;;;12.75;11.07;;;;;;;;;;5080522;28;20226;-65
2023/07/03 03:47:38;;;;;;;14.00;11.95;;;;;;;;;;5080190;28;20255;-65
2023/07/03 03:50:06;;;;;;;13.73;11.63;;;;;;;;;;5080369;28;20559;-65
2023/07/03 03:52:33;;;;;;;13.52;12.00;;;;;;;;;;5080315;28;20598;-65
2023/07/03 03:55:01;;;;;;;16.00;11.80;;;;;;;;;;5080069;28;20246;-65
2023/07/03 03:57:28;;;;;;;13.80;11.50;;;;;;;;;;5079922;28;20592;-65
2023/07/03 03:59:56;;;;;;;13.90;11.88;;;;;;;;;;5080103;28;20287;-65
2023/07/03 04:02:25;;;;;;;15.70;12.57;;;;;;;;;;5079845;28;20283;-65
2023/07/03 04:04:52;;;;;;;12.77;10.93;;;;;;;;;;5079445;28;20491;-65
2023/07/03 04:07:20;;;;;;;15.05;12.02;;;;;;;;;;5079714;28;20204;-65
2023/07/03 04:09:47;;;;;;;14.32;11.80;;;;;;;;;;5080014;28;20215;-65
2023/07/03 04:12:14;;;;;;;15.13;11.65;;;;;;;;;;5079948;28;20286;-65
2023/07/03 04:14:42;;;;;;;14.85;11.90;;;;;;;;;;5079949;28;20331;-65
2023/07/03 04:17:10;;;;;;;14.82;12.13;;;;;;;;;;5079185;28;20254;-65
2023/07/03 04:19:39;;;;;;;14.00;12.52;;;;;;;;;;5079566;28;20239;-65
2023/07/03 04:22:06;;;;;;;16.23;11.80;;;;;;;;;;5079818;28;20220;-65
2023/07/03 04:24:34;;;;;;;14.40;12.27;;;;;;;;;;5079016;28;20210;-65
2023/07/03 04:27:03;;;;;;;14.15;11.80;;;;;;;;;;5078477;28;20375;-65
2023/07/03 04:29:30;;;;;;;15.60;11.63;;;;;;;;;;5078685;28;20266;-65
2023/07/03 04:31:57;;;;;;;14.80;10.82;;;;;;;;;;5078673;28;20204;-65
2023/07/03 04:34:25;;;;;;;14.05;11.57;;;;;;;;;;5077971;28;20302;-65
2023/07/03 04:36:54;;;;;;;14.07;11.05;;;;;;;;;;5078628;28;20218;-65
2023/07/03 04:39:23;;;;;;;13.60;11.18;;;;;;;;;;5078250;28;20236;-65
2023/07/03 04:41:50;;;;;;;13.15;11.18;;;;;;;;;;5078384;28;20204;-65
2023/07/03 04:44:18;;;;;;;13.77;11.38;;;;;;;;;;5078063;28;20296;-65
2023/07/03 04:46:45;;;;;;;13.95;11.55;;;;;;;;;;5077869;28;20211;-66
2023/07/03 04:49:13;;;;;;;13.65;11.63;;;;;;;;;;5077371;28;20489;-65
2023/07/03 04:51:41;;;;;;;15.40;11.73;;;;;;;;;;5078269;28;20211;-65
2023/07/03 04:54:11;;;;;;;16.13;12.15;;;;;;;;;;5076918;28;20216;-65
2023/07/03 04:56:38;;;;;;;14.52;11.48;;;;;;;;;;5077727;28;20232;-65
2023/07/03 04:59:05;;;;;;;14.57;10.88;;;;;;;;;;5077858;28;20477;-65
2023/07/03 05:01:33;;;;;;;13.57;11.52;;;;;;;;;;5077471;28;20295;-65
2023/07/03 05:04:00;;;;;;;16.35;11.63;;;;;;;;;;5076776;28;20216;-65
2023/07/03 05:06:27;;;;;;;12.93;10.98;;;;;;;;;;5077470;28;20239;-65
2023/07/03 05:08:55;;;;;;;12.85;10.60;;;;;;;;;;5077053;28;20569;-65
2023/07/03 05:11:24;;;;;;;14.30;11.90;;;;;;;;;;5076949;28;20212;-65
2023/07/03 05:13:52;;;;;;;14.23;10.88;;;;;;;;;;5076481;28;20303;-65
2023/07/03 05:16:19;;;;;;;16.30;11.57;;;;;;;;;;5076594;28;20261;-65
2023/07/03 05:18:47;;;;;;;13.82;10.77;;;;;;;;;;5076647;28;20513;-65
2023/07/03 05:21:14;;;;;;;14.32;11.63;;;;;;;;;;5076410;28;20299;-65
2023/07/03 05:23:42;;;;;;;12.32;10.55;;;;;;;;;;5076309;28;20300;-65
2023/07/03 05:26:09;;;;;;;14.20;11.43;;;;;;;;;;5076253;28;20447;-65
2023/07/03 05:28:38;;;;;;;14.45;11.57;;;;;;;;;;5075998;28;20204;-65
2023/07/03 05:31:06;;;;;;;14.80;11.20;;;;;;;;;;5076211;28;20291;-65
2023/07/03 05:33:51;;;;;;;14.60;11.27;;;;;;;;;;5077078;28;20239;-65
2023/07/03 05:36:19;;;;;;;13.43;11.23;;;;;;;;;;5076035;28;20935;-65
2023/07/03 05:38:46;;;;;;;15.82;11.05;;;;;;;;;;5075905;28;20232;-65
2023/07/03 05:41:14;;;;;;;14.57;10.90;;;;;;;;;;5076388;28;20596;-65
2023/07/03 05:43:43;;;;;;;13.27;10.70;;;;;;;;;;5076588;28;20432;-65
2023/07/03 05:46:10;;;;;;;12.05;10.52;;;;;;;;;;5075932;28;20192;-65
2023/07/03 05:48:37;;;;;;;13.95;10.75;;;;;;;;;;5074932;28;20281;-65
2023/07/03 05:51:05;;;;;;;12.40;10.25;;;;;;;;;;5075403;28;20212;-65
2023/07/03 05:53:32;;;;;;;12.15;10.35;;;;;;;;;;5075659;28;20608;-65
2023/07/03 05:56:01;;;;;;;13.55;10.50;;;;;;;;;;5075814;28;20220;-65
2023/07/03 05:58:29;;;;;;;12.85;10.68;;;;;;;;;;5075073;28;20584;-65
2023/07/03 06:00:58;;;;;;;14.20;10.70;;;;;;;;;;5074724;28;20204;-65
2023/07/03 06:03:26;;;;;;;13.55;10.57;;;;;;;;;;5075937;28;20204;-65
2023/07/03 06:05:53;;;;;;;16.23;11.63;;;;;;;;;;5075116;28;20511;-65
2023/07/03 06:08:21;;;;;;;13.80;10.38;;;;;;;;;;5075518;28;20200;-65
2023/07/03 06:10:48;;;;;;;14.93;10.45;;;;;;;;;;5075204;28;20204;-65
2023/07/03 06:13:16;;;;;;;12.88;10.05;;;;;;;;;;5075489;28;20196;-65
2023/07/03 06:15:43;;;;;;;12.85;9.60;;;;;;;;;;5075292;28;20232;-65
2023/07/03 06:18:12;;;;;;;14.88;10.52;;;;;;;;;;5074956;28;20559;-65
2023/07/03 06:20:40;;;;;;;13.90;10.45;;;;;;;;;;5074825;28;20243;-65
2023/07/03 06:23:07;;;;;;;12.95;10.40;;;;;;;;;;5075233;28;20295;-65
2023/07/03 06:25:35;;;;;;;12.48;10.13;;;;;;;;;;5074763;28;20283;-65
2023/07/03 06:28:03;;;;;;;13.98;9.95;;;;;;;;;;5074797;28;20239;-65
2023/07/03 06:30:30;;;;;;;13.32;9.95;;;;;;;;;;5075343;28;20560;-66
2023/07/03 06:32:57;;;;;;;15.30;10.63;;;;;;;;;;5074361;28;20297;-65
2023/07/03 06:35:26;;;;;;;13.05;10.13;;;;;;;;;;5073979;28;20224;-65
2023/07/03 06:37:55;;;;;;;15.80;10.10;;;;;;;;;;5074593;28;20246;-65
2023/07/03 06:40:23;;;;;;;15.32;10.50;;;;;;;;;;5074566;28;20204;-65
2023/07/03 06:42:53;;;;;;;12.50;10.23;;;;;;;;;;5074225;28;20201;-65
2023/07/03 06:45:20;;;;;;;14.93;10.38;;;;;;;;;;5074265;28;20300;-65
2023/07/03 06:47:48;;;;;;;13.27;9.95;;;;;;;;;;5075035;28;20211;-65
2023/07/03 06:50:15;;;;;;;13.90;10.00;;;;;;;;;;5074870;28;20215;-66
2023/07/03 06:52:44;;;;;;;15.23;9.32;;;;;;;;;;5074656;28;20490;-66
2023/07/03 06:55:12;;;;;;;13.40;9.55;;;;;;;;;;5074582;28;20566;-66
2023/07/03 06:57:39;;;;;;;13.43;9.05;;;;;;;;;;5074767;28;20278;-66
2023/07/03 07:00:08;;;;;;;13.13;8.60;;;;;;;;;;5074502;28;20214;-66
2023/07/03 07:02:36;;;;;;;12.13;7.68;;;;;;;;;;5074086;28;20196;-66
2023/07/03 07:05:03;;;;;;;13.57;8.07;;;;;;;;;;5073610;28;20298;-66
2023/07/03 07:07:30;;;;;;;11.43;7.50;;;;;;;;;;5073889;28;20243;-66
2023/07/03 07:09:59;;;;;;;12.73;7.78;;;;;;;;;;5074599;28;20204;-66
2023/07/03 07:12:27;;;;;;;10.70;7.40;;;;;;;;;;5073990;28;20200;-66
2023/07/03 07:14:54;;;;;;;10.52;6.78;;;;;;;;;;5074720;28;20577;-66
2023/07/03 07:17:22;;;;;;;12.23;7.80;;;;;;;;;;5075964;28;20600;-66
2023/07/03 07:19:50;;;;;;;11.68;7.45;;;;;;;;;;5080960;28;20223;-66
2023/07/03 07:22:17;;;;;;;11.65;7.13;;;;;;;;;;5082056;28;20227;-66
2023/07/03 07:24:45;;;;;;;12.73;6.95;;;;;;;;;;5081534;28;20211;-66
2023/07/03 07:27:14;;;;;;;15.15;6.78;;;;;;;;;;5081074;28;20251;-66
2023/07/03 07:29:41;;;;;;;12.35;7.18;;;;;;;;;;5081538;28;20282;-66
2023/07/03 07:32:10;;;;;;;12.85;7.28;;;;;;;;;;5080652;28;20239;-66
2023/07/03 07:34:37;;;;;;;10.40;6.20;;;;;;;;;;5081203;28;20279;-66
2023/07/03 07:37:04;;;;;;;13.00;6.90;;;;;;;;;;5080998;28;20227;-66
2023/07/03 07:39:32;;;;;;;10.85;6.75;;;;;;;;;;5080381;28;20235;-67
2023/07/03 07:41:59;;;;;;;10.98;6.78;;;;;;;;;;5079766;28;20306;-67
2023/07/03 07:44:28;;;;;;;15.45;6.40;;;;;;;;;;5080763;28;20771;-67
2023/07/03 07:46:56;;;;;;;13.35;6.70;;;;;;;;;;5080604;28;20206;-66
2023/07/03 07:49:23;;;;;;;12.15;6.53;;;;;;;;;;5080275;28;20303;-66
2023/07/03 07:51:50;;;;;;;10.02;6.13;;;;;;;;;;5080050;28;20200;-66
2023/07/03 07:54:18;;;;;;;11.05;6.78;;;;;;;;;;5080730;28;20295;-66
2023/07/03 07:56:46;;;;;;;12.35;7.35;;;;;;;;;;5080449;28;20227;-66
2023/07/03 07:59:14;;;;;;;11.20;6.32;;;;;;;;;;5080644;28;20204;-66
2023/07/03 08:01:43;;;;;;;10.48;6.40;;;;;;;;;;5081283;28;20208;-66
2023/07/03 08:04:11;;;;;;;12.27;7.10;;;;;;;;;;5080787;28;20204;-66
2023/07/03 08:06:38;;;;;;;13.02;7.43;;;;;;;;;;5081230;28;20561;-66
2023/07/03 08:09:05;;;;;;;11.18;6.72;;;;;;;;;;5081020;28;20239;-66
2023/07/03 08:11:33;;;;;;;13.93;7.38;;;;;;;;;;5080667;28;20299;-66
2023/07/03 08:14:00;;;;;;;11.40;6.57;;;;;;;;;;5080513;28;20584;-67
2023/07/03 08:16:28;;;;;;;12.02;7.13;;;;;;;;;;5080968;28;20234;-67
2023/07/03 08:18:56;;;;;;;12.38;6.75;;;;;;;;;;5080708;28;20200;-67
2023/07/03 08:21:24;;;;;;;12.40;7.38;;;;;;;;;;5081212;28;20304;-67
2023/07/03 08:23:51;;;;;;;11.85;7.47;;;;;;;;;;5080510;28;20576;-67
2023/07/03 08:26:20;;;;;;;12.38;7.25;;;;;;;;;;5080564;28;20273;-67
2023/07/03 08:28:47;;;;;;;12.00;7.70;;;;;;;;;;5079809;28;20246;-67
2023/07/03 08:31:14;;;;;;;11.30;7.60;;;;;;;;;;5077640;28;20307;-67
2023/07/03 08:33:42;;;;;;;11.40;6.90;;;;;;;;;;5077345;28;20287;-67
2023/07/03 08:36:11;;;;;;;11.82;7.38;;;;;;;;;;5077062;28;20323;-67
2023/07/03 08:38:38;;;;;;;9.35;6.85;;;;;;;;;;5076669;28;20236;-67
2023/07/03 08:41:05;;;;;;;11.68;7.55;;;;;;;;;;5077455;28;20643;-67
2023/07/03 08:43:35;;;;;;;11.73;6.68;;;;;;;;;;5076835;28;20580;-67
2023/07/03 08:46:03;;;;;;;13.20;6.97;;;;;;;;;;5077408;28;20219;-67
2023/07/03 08:48:33;;;;;;;12.35;7.13;;;;;;;;;;5076941;28;20205;-67
2023/07/03 08:51:02;;;;;;;13.30;6.97;;;;;;;;;;5077118;28;20204;-67
2023/07/03 08:53:32;;;;;;;13.27;7.30;;;;;;;;;;5077128;28;20210;-67
2023/07/03 08:56:03;;;;;;;12.40;7.60;;;;;;;;;;5077357;28;20228;-67
2023/07/03 08:58:30;;;;;;;16.92;7.65;;;;;;;;;;5077677;28;20204;-67
2023/07/03 09:01:02;;;;;;;10.35;7.40;;;;;;;;;;5076534;28;20204;-67
2023/07/03 09:03:34;;;;;;;13.07;7.05;;;;;;;;;;5076666;28;20603;-67
2023/07/03 09:06:08;;;;;;;10.90;6.90;;;;;;;;;;5076954;28;20247;-67
2023/07/03 09:08:39;;;;;;;11.98;7.07;;;;;;;;;;5077235;28;20216;-67
2023/07/03 09:11:07;;;;;;;12.48;6.85;;;;;;;;;;5075967;28;20248;-67
2023/07/03 09:13:36;;;;;;;12.75;6.82;;;;;;;;;;5075955;28;20226;-67
2023/07/03 09:16:06;;;;;;;12.07;7.40;;;;;;;;;;5075981;28;20204;-67
2023/07/03 09:18:36;;;;;;;11.82;7.25;;;;;;;;;;5076185;28;20300;-67
2023/07/03 09:21:04;;;;;;;11.77;7.13;;;;;;;;;;5076307;28;20283;-67
2023/07/03 09:23:36;;;;;;;12.20;6.95;;;;;;;;;;5076769;28;20227;-67
2023/07/03 09:26:07;;;;;;;12.18;7.18;;;;;;;;;;5077468;28;20493;-67
2023/07/03 09:28:36;;;;;;;10.25;6.35;;;;;;;;;;5076636;28;20291;-67
2023/07/03 09:31:04;;;;;;;11.38;6.95;;;;;;;;;;5076055;28;20204;-67
2023/07/03 09:33:31;;;;;;;12.93;6.93;;;;;;;;;;5075013;28;20295;-67
2023/07/03 09:36:02;;;;;;;10.90;7.50;;;;;;;;;;5075459;28;20291;-67
2023/07/03 09:38:31;;;;;;;10.20;6.65;;;;;;;;;;5075823;28;20744;-67
2023/07/03 09:41:04;;;;;;;11.88;7.20;;;;;;;;;;5074767;28;20204;-67
2023/07/03 09:43:33;;;;;;;12.82;7.60;;;;;;;;;;5075173;28;20222;-67
2023/07/03 09:46:05;;;;;;;10.95;6.95;;;;;;;;;;5075510;28;20212;-67
2023/07/03 09:48:34;;;;;;;12.50;6.88;;;;;;;;;;5075081;28;20203;-67
2023/07/03 09:51:05;;;;;;;11.88;7.07;;;;;;;;;;5075518;28;20273;-67
2023/07/03 09:53:33;;;;;;;10.85;6.75;;;;;;;;;;5075242;28;20287;-67
2023/07/03 09:56:02;;;;;;;13.23;7.22;;;;;;;;;;5075286;28;20478;-67
2023/07/03 09:58:30;;;;;;;10.88;6.78;;;;;;;;;;5074738;28;20230;-67
2023/07/03 10:00:59;;;;;;;9.40;6.57;;;;;;;;;;5074839;28;20265;-67
2023/07/03 10:03:28;;;;;;;12.10;7.22;;;;;;;;;;5074089;28;20291;-67
2023/07/03 10:05:57;;;;;;;10.73;6.55;;;;;;;;;;5074410;28;20747;-67
2023/07/03 10:08:26;;;;;;;9.77;7.22;;;;;;;;;;5073692;28;20200;-67
2023/07/03 10:10:55;;;;;;;10.90;6.63;;;;;;;;;;5073897;28;20307;-67
2023/07/03 10:13:25;;;;;;;10.82;6.82;;;;;;;;;;5073819;28;20222;-67
2023/07/03 10:15:54;;;;;;;12.15;6.45;;;;;;;;;;5073845;28;20208;-67
2023/07/03 10:18:26;;;;;;;11.43;6.50;;;;;;;;;;5074643;28;20224;-67
2023/07/03 10:20:54;;;;;;;9.18;5.97;;;;;;;;;;5074293;28;20211;-67
2023/07/03 10:23:23;;;;;;;12.20;6.70;;;;;;;;;;5074905;28;20212;-67
2023/07/03 10:25:54;;;;;;;12.50;6.65;;;;;;;;;;5074135;28;20204;-67
2023/07/03 10:28:23;;;;;;;10.82;6.53;;;;;;;;;;5074638;28;20200;-67
2023/07/03 10:30:54;;;;;;;11.80;6.78;;;;;;;;;;5074274;28;20215;-67
2023/07/03 10:33:26;;;;;;;12.35;6.40;;;;;;;;;;5073495;28;20269;-67
2023/07/03 10:35:55;;;;;;;10.07;6.40;;;;;;;;;;5074068;28;20204;-67
2023/07/03 10:38:26;;;;;;;10.55;6.78;;;;;;;;;;5073652;28;20240;-67
2023/07/03 10:40:57;;;;;;;10.65;6.40;;;;;;;;;;5073541;28;20291;-67
2023/07/03 10:43:27;;;;;;;10.38;6.18;;;;;;;;;;5073612;28;20455;-67
2023/07/03 10:45:55;;;;;;;9.80;6.60;;;;;;;;;;5073750;28;20291;-67
2023/07/03 10:48:24;;;;;;;10.98;6.63;;;;;;;;;;5074239;28;20612;-67
2023/07/03 10:50:57;;;;;;;9.32;6.90;;;;;;;;;;5074295;28;20490;-67
2023/07/03 10:53:29;;;;;;;8.60;5.75;;;;;;;;;;5072880;28;20212;-67
2023/07/03 10:56:01;;;;;;;13.30;6.93;;;;;;;;;;5072321;28;20295;-67
2023/07/03 10:58:33;;;;;;;10.23;6.20;;;;;;;;;;5073307;28;20232;-67
2023/07/03 11:01:04;;;;;;;10.45;6.82;;;;;;;;;;5073846;28;20215;-67
2023/07/03 11:03:37;;;;;;;11.55;7.05;;;;;;;;;;5072873;28;20291;-67
2023/07/03 11:06:06;;;;;;;9.68;6.50;;;;;;;;;;5073689;28;20298;-67
2023/07/03 11:08:40;;;;;;;11.00;6.63;;;;;;;;;;5074517;28;20507;-67
2023/07/03 11:11:13;;;;;;;10.18;6.82;;;;;;;;;;5074321;28;20209;-67
2023/07/03 11:13:49;;;;;;;9.25;6.38;;;;;;;;;;5073453;28;20244;-67
2023/07/03 11:16:18;;;;;;;10.85;6.93;;;;;;;;;;5072493;28;20664;-67
2023/07/03 11:18:53;;;;;;;9.38;6.43;;;;;;;;;;5073324;28;20592;-67
2023/07/03 11:21:26;;;;;;;10.63;6.85;;;;;;;;;;5073314;28;20213;-67
2023/07/03 11:23:59;;;;;;;9.73;6.72;;;;;;;;;;5073350;28;20330;-68
2023/07/03 11:26:30;;;;;;;12.40;7.15;;;;;;;;;;5073060;28;20394;-67
2023/07/03 11:28:58;;;;;;;11.35;6.28;;;;;;;;;;5071738;28;20502;-67
2023/07/03 11:31:26;;;;;;;9.50;6.18;;;;;;;;;;5073271;28;20200;-68
2023/07/03 11:33:54;;;;;;;12.82;7.07;;;;;;;;;;5072215;28;20307;-67
2023/07/03 11:36:41;;;;;;;10.68;6.65;;;;;;;;;;5072960;28;20201;-67
2023/07/03 11:39:19;;;;;;;9.57;6.20;;;;;;;;;;5071927;28;20315;-67
2023/07/03 11:41:49;;;;;;;9.38;5.63;;;;;;;;;;5071983;28;20517;-67
2023/07/03 11:44:31;;;;;;;10.80;6.00;;;;;;;;;;5072524;28;20298;-67
2023/07/03 11:46:59;;;;;;;11.05;5.97;;;;;;;;;;5072445;28;20204;-67
2023/07/03 11:49:27;;;;;;;10.88;5.97;;;;;;;;;;5073086;28;20287;-67
2023/07/03 11:52:00;;;;;;;8.13;5.57;;;;;;;;;;5073433;28;20298;-67
2023/07/03 11:54:30;;;;;;;10.90;6.75;;;;;;;;;;5073464;28;20204;-67
2023/07/03 11:56:59;;;;;;;10.02;5.45;;;;;;;;;;5073901;28;20228;-67
2023/07/03 11:59:31;;;;;;;8.38;5.72;;;;;;;;;;5073175;28;20200;-67
2023/07/03 12:02:17;;;;;;;10.65;6.28;;;;;;;;;;5073222;28;20207;-67
2023/07/03 12:04:51;;;;;;;8.73;5.85;;;;;;;;;;5075664;28;20196;-67
2023/07/03 12:07:37;;;;;;;7.82;5.35;;;;;;;;;;5076546;28;20295;-67
2023/07/03 12:10:22;;;;;;;8.75;5.22;;;;;;;;;;5076266;28;20295;-67
2023/07/03 12:13:04;;;;;;;7.40;5.32;;;;;;;;;;5063350;28;20616;-67
2023/07/03 12:15:33;;;;;;;9.93;5.25;;;;;;;;;;5075998;28;20303;-67
2023/07/03 12:18:04;;;;;;;7.88;5.60;;;;;;;;;;5076094;28;20270;-67
2023/07/03 12:20:32;;;;;;;10.57;5.30;;;;;;;;;;5075650;28;20326;-67
2023/07/03 12:22:59;;;;;;;9.40;5.55;;;;;;;;;;5074624;28;20503;-67
2023/07/03 12:25:28;;;;;;;8.73;4.90;;;;;;;;;;5091859;28;20200;-67
2023/07/03 12:27:56;;;;;;;9.35;5.13;;;;;;;;;;5096767;28;20223;-67
2023/07/03 12:30:25;;;;;;;8.13;4.72;;;;;;;;;;5095757;28;20290;-67
2023/07/03 12:32:54;;;;;;;6.97;4.75;;;;;;;;;;5096198;28;20196;-67
2023/07/03 12:35:24;;;;;;;6.72;4.07;;;;;;;;;;5095432;28;20200;-67
2023/07/03 12:37:54;;;;;;;9.25;4.90;;;;;;;;;;5096083;28;20258;-67
2023/07/03 12:40:22;;;;;;;6.15;4.20;;;;;;;;;;5096815;28;20295;-67
2023/07/03 12:42:52;;;;;;;6.15;4.13;;;;;;;;;;5096685;28;20250;-67
2023/07/03 12:45:21;;;;;;;7.65;3.97;;;;;;;;;;5095724;28;20276;-67
2023/07/03 12:48:01;;;;;;;6.05;3.67;;;;;;;;;;5096291;28;20204;-67
2023/07/03 12:50:29;;;;;;;5.75;3.30;;;;;;;;;;5095869;28;20203;-67
2023/07/03 12:52:57;;;;;;;4.30;2.65;;;;;;;;;;5095360;28;20298;-67
2023/07/03 12:55:25;;;;;;;3.75;2.50;;;;;;;;;;5095478;28;20615;-67
2023/07/03 12:57:54;;;;;;;4.63;2.70;;;;;;;;;;5095187;28;20242;-67
2023/07/03 13:00:25;;;;;;;4.25;2.55;;;;;;;;;;5095520;28;20200;-67
2023/07/03 13:02:52;;;;;;;5.15;2.95;;;;;;;;;;5095949;28;20206;-67
2023/07/03 13:05:23;;;;;;;3.45;2.15;;;;;;;;;;5096539;28;20226;-67
2023/07/03 13:07:51;;;;;;;4.95;2.63;;;;;;;;;;5095539;28;20200;-67
2023/07/03 13:10:20;;;;;;;5.18;2.38;;;;;;;;;;5095838;28;20204;-67
2023/07/03 13:12:53;;;;;;;3.83;2.13;;;;;;;;;;5096656;28;20278;-67
2023/07/03 13:15:33;;;;;;;5.30;2.50;;;;;;;;;;5094925;28;20294;-67
2023/07/03 13:18:04;;;;;;;4.93;2.45;;;;;;;;;;5095300;28;20923;-67
2023/07/03 13:20:33;;;;;;;3.88;2.80;;;;;;;;;;5094467;28;20200;-67
2023/07/03 13:23:01;;;;;;;5.85;2.70;;;;;;;;;;5095695;28;20204;-67
2023/07/03 13:25:33;;;;;;;4.82;2.58;;;;;;;;;;5095138;28;20249;-67
2023/07/03 13:28:01;;;;;;;5.30;2.97;;;;;;;;;;5095035;28;20298;-67
2023/07/03 13:30:31;;;;;;;5.68;2.97;;;;;;;;;;5094357;28;20578;-67
2023/07/03 13:33:00;;;;;;;5.68;2.90;;;;;;;;;;5095428;28;20203;-67
2023/07/03 13:35:29;;;;;;;5.07;2.97;;;;;;;;;;5095576;28;20195;-67
2023/07/03 13:38:11;;;;;;;6.15;3.42;;;;;;;;;;5094194;28;20326;-67
2023/07/03 13:40:39;;;;;;;4.25;2.92;;;;;;;;;;5094743;28;20195;-68
2023/07/03 13:43:06;;;;;;;5.93;2.92;;;;;;;;;;5094964;28;20200;-67
2023/07/03 13:45:34;;;;;;;6.15;3.22;;;;;;;;;;5095056;28;20505;-67
2023/07/03 13:48:01;;;;;;;6.97;3.00;;;;;;;;;;5095387;28;20294;-67
2023/07/03 13:50:29;;;;;;;5.15;2.88;;;;;;;;;;5095609;28;20207;-67
2023/07/03 13:52:57;;;;;;;4.07;3.00;;;;;;;;;;5094705;28;20498;-67
2023/07/03 13:55:25;;;;;;;4.95;2.78;;;;;;;;;;5094622;28;20663;-67
2023/07/03 13:57:53;;;;;;;5.13;3.13;;;;;;;;;;5094926;28;20803;-67
2023/07/03 14:00:20;;;;;;;4.43;2.80;;;;;;;;;;5094709;28;20502;-67
2023/07/03 14:02:48;;;;;;;5.10;2.70;;;;;;;;;;5095060;28;20218;-67
2023/07/03 14:05:15;;;;;;;4.68;3.05;;;;;;;;;;5094983;28;20576;-67
2023/07/03 14:07:43;;;;;;;5.35;2.88;;;;;;;;;;5094158;28;20242;-68
2023/07/03 14:10:10;;;;;;;5.50;2.97;;;;;;;;;;5093942;28;20200;-67
2023/07/03 14:12:39;;;;;;;6.03;3.30;;;;;;;;;;5093752;28;20203;-67
2023/07/03 14:15:11;;;;;;;4.63;2.80;;;;;;;;;;5094331;28;20302;-68
2023/07/03 14:17:39;;;;;;;6.60;2.83;;;;;;;;;;5094207;28;20285;-67
2023/07/03 14:20:08;;;;;;;5.55;2.60;;;;;;;;;;5093017;28;20621;-67
2023/07/03 14:22:35;;;;;;;4.57;3.00;;;;;;;;;;5093649;28;20212;-67
2023/07/03 14:25:03;;;;;;;4.55;2.75;;;;;;;;;;5094139;28;20265;-67
2023/07/03 14:27:33;;;;;;;3.78;2.67;;;;;;;;;;5094426;28;20204;-67
2023/07/03 14:30:02;;;;;;;6.90;3.03;;;;;;;;;;5093847;28;20290;-67
2023/07/03 14:32:30;;;;;;;4.78;2.90;;;;;;;;;;5094010;28;20196;-67
2023/07/03 14:34:57;;;;;;;3.67;2.80;;;;;;;;;;5093239;28;20218;-67
2023/07/03 14:37:24;;;;;;;4.05;2.80;;;;;;;;;;5093942;28;20203;-67
2023/07/03 14:39:52;;;;;;;3.88;2.95;;;;;;;;;;5094077;28;20236;-67
2023/07/03 14:42:19;;;;;;;4.88;2.78;;;;;;;;;;5094446;28;20239;-67